sensor_id;sensor_type;location;lat;lon;timestamp;pressure;altitude;pressure_sealevel;temperature;humidity
66762;BME280;77357;47.660;16.282;2024-03-23T00:57:03;94085.34;;;11.23;44.45
66762;BME280;77357;47.660;16.282;2024-03-23T01:02:05;94072.09;;;11.34;43.92
66762;BME280;77357;47.660;16.282;2024-03-23T01:07:07;94066.28;;;11.27;44.43
66762;BME280;77357;47.660;16.282;2024-03-23T01:12:10;94061.47;;;11.24;44.61
66762;BME280;77357;47.660;16.282;2024-03-23T01:17:12;94066.28;;;10.75;49.22
66762;BME280;77357;47.660;16.282;2024-03-23T01:22:14;94061.47;;;10.89;46.55
66762;BME280;77357;47.660;16.282;2024-03-23T01:27:17;94045.31;;;11.14;44.80
66762;BME280;77357;47.660;16.282;2024-03-23T01:32:19;94044.34;;;11.10;45.17
66762;BME280;77357;47.660;16.282;2024-03-23T01:37:22;94049.81;;;10.92;48.34
66762;BME280;77357;47.660;16.282;2024-03-23T01:42:25;94047.00;;;10.58;48.66
66762;BME280;77357;47.660;16.282;2024-03-23T01:47:27;94040.63;;;10.80;45.63
66762;BME280;77357;47.660;16.282;2024-03-23T01:52:29;94032.28;;;10.37;51.06
66762;BME280;77357;47.660;16.282;2024-03-23T01:57:33;94021.38;;;9.58;54.23
66762;BME280;77357;47.660;16.282;2024-03-23T02:02:35;94018.84;;;9.71;55.08
66762;BME280;77357;47.660;16.282;2024-03-23T02:07:37;94012.75;;;9.74;55.21
66762;BME280;77357;47.660;16.282;2024-03-23T02:12:41;94006.00;;;9.18;57.96
66762;BME280;77357;47.660;16.282;2024-03-23T02:17:43;94002.66;;;8.99;58.01
66762;BME280;77357;47.660;16.282;2024-03-23T02:22:45;93995.78;;;8.88;59.60
66762;BME280;77357;47.660;16.282;2024-03-23T02:27:48;93986.22;;;8.55;61.08
66762;BME280;77357;47.660;16.282;2024-03-23T02:32:50;93976.66;;;8.88;59.37
66762;BME280;77357;47.660;16.282;2024-03-23T02:37:52;93981.53;;;9.13;60.62
66762;BME280;77357;47.660;16.282;2024-03-23T02:42:57;93974.28;;;9.39;58.01
66762;BME280;77357;47.660;16.282;2024-03-23T02:47:59;93965.38;;;9.64;55.60
66762;BME280;77357;47.660;16.282;2024-03-23T02:53:01;93961.34;;;9.62;52.79
66762;BME280;77357;47.660;16.282;2024-03-23T02:58:06;93961.94;;;9.90;50.04
66762;BME280;77357;47.660;16.282;2024-03-23T03:03:08;93957.25;;;9.90;51.31
66762;BME280;77357;47.660;16.282;2024-03-23T03:08:10;93951.44;;;9.75;54.74
66762;BME280;77357;47.660;16.282;2024-03-23T03:13:13;93948.81;;;9.61;54.05
66762;BME280;77357;47.660;16.282;2024-03-23T03:18:15;93947.22;;;8.85;59.13
66762;BME280;77357;47.660;16.282;2024-03-23T03:23:17;93941.25;;;9.05;56.75
66762;BME280;77357;47.660;16.282;2024-03-23T03:28:21;93947.41;;;9.81;51.13
66762;BME280;77357;47.660;16.282;2024-03-23T03:33:23;93939.41;;;10.10;48.21
66762;BME280;77357;47.660;16.282;2024-03-23T03:38:25;93942.91;;;9.93;50.18
66762;BME280;77357;47.660;16.282;2024-03-23T03:43:28;93944.22;;;8.95;54.67
66762;BME280;77357;47.660;16.282;2024-03-23T03:48:30;93941.44;;;8.06;57.79
66762;BME280;77357;47.660;16.282;2024-03-23T03:53:32;93941.69;;;7.69;61.10
66762;BME280;77357;47.660;16.282;2024-03-23T03:58:35;93939.06;;;7.37;62.61
66762;BME280;77357;47.660;16.282;2024-03-23T04:03:37;93920.91;;;7.46;64.47
66762;BME280;77357;47.660;16.282;2024-03-23T04:08:44;93920.66;;;7.83;62.97
66762;BME280;77357;47.660;16.282;2024-03-23T04:13:47;93906.72;;;8.20;61.03
66762;BME280;77357;47.660;16.282;2024-03-23T04:18:49;93904.31;;;8.05;61.48
66762;BME280;77357;47.660;16.282;2024-03-23T04:23:51;93910.09;;;8.04;60.15
66762;BME280;77357;47.660;16.282;2024-03-23T04:28:55;93889.69;;;8.01;62.57
66762;BME280;77357;47.660;16.282;2024-03-23T04:33:57;93896.50;;;7.90;62.25
66762;BME280;77357;47.660;16.282;2024-03-23T04:39:00;93900.00;;;8.04;61.56
66762;BME280;77357;47.660;16.282;2024-03-23T04:44:03;93899.75;;;8.14;58.71
66762;BME280;77357;47.660;16.282;2024-03-23T04:49:05;93891.41;;;8.33;58.81
66762;BME280;77357;47.660;16.282;2024-03-23T04:54:08;93892.59;;;8.41;60.61
66762;BME280;77357;47.660;16.282;2024-03-23T04:59:11;93889.34;;;8.61;55.20
66762;BME280;77357;47.660;16.282;2024-03-23T05:04:13;93874.75;;;8.87;57.38
66762;BME280;77357;47.660;16.282;2024-03-23T05:09:15;93871.31;;;8.82;60.31
66762;BME280;77357;47.660;16.282;2024-03-23T05:14:19;93864.09;;;8.86;56.42
66762;BME280;77357;47.660;16.282;2024-03-23T05:19:21;93864.56;;;9.49;52.47
66762;BME280;77357;47.660;16.282;2024-03-23T05:24:22;93862.81;;;9.53;53.27
66762;BME280;77357;47.660;16.282;2024-03-23T05:29:26;93855.72;;;9.52;51.44
66762;BME280;77357;47.660;16.282;2024-03-23T05:34:29;93861.53;;;9.59;52.65
66762;BME280;77357;47.660;16.282;2024-03-23T05:39:31;93851.78;;;10.27;49.96
66762;BME280;77357;47.660;16.282;2024-03-23T05:44:35;93853.06;;;10.12;52.44
66762;BME280;77357;47.660;16.282;2024-03-23T05:49:38;93845.16;;;10.28;53.16
66762;BME280;77357;47.660;16.282;2024-03-23T05:54:40;93840.97;;;10.56;50.11
66762;BME280;77357;47.660;16.282;2024-03-23T05:59:44;93845.75;;;10.93;51.06
66762;BME280;77357;47.660;16.282;2024-03-23T06:04:46;93838.72;;;10.75;55.87
66762;BME280;77357;47.660;16.282;2024-03-23T06:09:48;93849.97;;;10.74;55.28
66762;BME280;77357;47.660;16.282;2024-03-23T06:14:52;93858.16;;;11.75;47.95
66762;BME280;77357;47.660;16.282;2024-03-23T06:19:54;93853.72;;;14.12;43.43
66762;BME280;77357;47.660;16.282;2024-03-23T06:24:56;93847.75;;;14.10;37.83
66762;BME280;77357;47.660;16.282;2024-03-23T06:30:00;93845.94;;;13.77;38.72
66762;BME280;77357;47.660;16.282;2024-03-23T06:35:02;93842.41;;;13.20;40.49
66762;BME280;77357;47.660;16.282;2024-03-23T06:40:08;93834.72;;;13.13;40.58
66762;BME280;77357;47.660;16.282;2024-03-23T06:45:12;93824.97;;;13.16;40.33
66762;BME280;77357;47.660;16.282;2024-03-23T06:50:14;93830.44;;;13.04;41.04
66762;BME280;77357;47.660;16.282;2024-03-23T06:55:16;93833.13;;;13.25;40.67
66762;BME280;77357;47.660;16.282;2024-03-23T07:00:20;93822.19;;;13.04;41.50
66762;BME280;77357;47.660;16.282;2024-03-23T07:05:22;93822.38;;;13.32;39.55
66762;BME280;77357;47.660;16.282;2024-03-23T07:10:24;93825.50;;;12.97;39.79
66762;BME280;77357;47.660;16.282;2024-03-23T07:15:27;93824.47;;;13.02;39.93
66762;BME280;77357;47.660;16.282;2024-03-23T07:20:29;93824.00;;;13.12;40.17
66762;BME280;77357;47.660;16.282;2024-03-23T07:25:31;93820.66;;;12.62;46.05
66762;BME280;77357;47.660;16.282;2024-03-23T07:30:35;93820.97;;;12.81;42.33
66762;BME280;77357;47.660;16.282;2024-03-23T07:35:37;93819.06;;;13.05;38.85
66762;BME280;77357;47.660;16.282;2024-03-23T07:40:38;93823.25;;;13.11;40.17
66762;BME280;77357;47.660;16.282;2024-03-23T07:45:42;93815.94;;;13.28;38.75
66762;BME280;77357;47.660;16.282;2024-03-23T07:50:44;93801.16;;;13.32;38.28
66762;BME280;77357;47.660;16.282;2024-03-23T07:55:53;93807.69;;;13.40;39.04
66762;BME280;77357;47.660;16.282;2024-03-23T08:01:03;93797.72;;;13.47;38.63
66762;BME280;77357;47.660;16.282;2024-03-23T08:06:10;93800.47;;;13.59;37.52
66762;BME280;77357;47.660;16.282;2024-03-23T08:11:12;93792.91;;;13.80;37.94
66762;BME280;77357;47.660;16.282;2024-03-23T08:16:15;93799.88;;;13.90;36.11
66762;BME280;77357;47.660;16.282;2024-03-23T08:21:18;93781.50;;;13.94;37.08
66762;BME280;77357;47.660;16.282;2024-03-23T08:26:19;93777.91;;;14.06;37.28
66762;BME280;77357;47.660;16.282;2024-03-23T08:31:23;93761.31;;;14.18;34.92
66762;BME280;77357;47.660;16.282;2024-03-23T08:36:25;93764.03;;;13.90;36.93
66762;BME280;77357;47.660;16.282;2024-03-23T08:41:27;93751.63;;;15.07;34.51
66762;BME280;77357;47.660;16.282;2024-03-23T08:46:30;93743.78;;;17.02;29.75
66762;BME280;77357;47.660;16.282;2024-03-23T08:51:32;93735.69;;;17.35;28.07
66762;BME280;77357;47.660;16.282;2024-03-23T08:56:34;93722.34;;;19.52;24.70
66762;BME280;77357;47.660;16.282;2024-03-23T09:01:37;93722.34;;;19.52;29.62
66762;BME280;77357;47.660;16.282;2024-03-23T09:06:42;93713.66;;;19.20;28.36
66762;BME280;77357;47.660;16.282;2024-03-23T09:11:44;93703.41;;;19.24;26.74
66762;BME280;77357;47.660;16.282;2024-03-23T09:16:49;93692.56;;;17.86;29.91
66762;BME280;77357;47.660;16.282;2024-03-23T09:21:51;93681.03;;;18.40;27.05
66762;BME280;77357;47.660;16.282;2024-03-23T09:26:53;93676.69;;;18.76;26.05
66762;BME280;77357;47.660;16.282;2024-03-23T09:31:57;93653.47;;;18.25;28.06
66762;BME280;77357;47.660;16.282;2024-03-23T09:36:59;93645.13;;;17.65;28.00
66762;BME280;77357;47.660;16.282;2024-03-23T09:42:00;93621.75;;;17.92;28.43
66762;BME280;77357;47.660;16.282;2024-03-23T09:47:04;93599.13;;;18.24;28.77
66762;BME280;77357;47.660;16.282;2024-03-23T09:52:07;93585.88;;;18.07;28.28
66762;BME280;77357;47.660;16.282;2024-03-23T09:57:09;93579.25;;;18.18;26.88
66762;BME280;77357;47.660;16.282;2024-03-23T10:02:12;93575.31;;;18.56;27.01
66762;BME280;77357;47.660;16.282;2024-03-23T10:07:18;93578.28;;;18.37;28.05
66762;BME280;77357;47.660;16.282;2024-03-23T10:12:21;93565.81;;;18.20;27.11
66762;BME280;77357;47.660;16.282;2024-03-23T10:17:25;93560.91;;;18.07;28.40
66762;BME280;77357;47.660;16.282;2024-03-23T10:22:27;93560.75;;;18.66;28.43
66762;BME280;77357;47.660;16.282;2024-03-23T10:27:29;93549.06;;;18.90;27.96
66762;BME280;77357;47.660;16.282;2024-03-23T10:32:32;93545.63;;;17.90;26.67
66762;BME280;77357;47.660;16.282;2024-03-23T10:37:34;93551.00;;;17.46;29.02
66762;BME280;77357;47.660;16.282;2024-03-23T10:42:37;93542.19;;;17.70;27.87
66762;BME280;77357;47.660;16.282;2024-03-23T10:47:41;93525.44;;;17.60;30.42
66762;BME280;77357;47.660;16.282;2024-03-23T10:52:46;93517.22;;;17.41;29.72
66762;BME280;77357;47.660;16.282;2024-03-23T10:57:50;93517.28;;;17.44;30.86
66762;BME280;77357;47.660;16.282;2024-03-23T11:02:55;93502.00;;;17.54;26.81
66762;BME280;77357;47.660;16.282;2024-03-23T11:07:57;93508.13;;;17.10;28.36
66762;BME280;77357;47.660;16.282;2024-03-23T11:13:22;93517.31;;;17.18;30.71
66762;BME280;77357;47.660;16.282;2024-03-23T11:18:25;93515.31;;;17.15;31.19
66762;BME280;77357;47.660;16.282;2024-03-23T11:23:27;93504.09;;;17.34;33.29
66762;BME280;77357;47.660;16.282;2024-03-23T11:28:30;93511.09;;;17.54;28.59
66762;BME280;77357;47.660;16.282;2024-03-23T11:33:33;93496.16;;;17.32;30.30
66762;BME280;77357;47.660;16.282;2024-03-23T11:38:36;93483.00;;;17.26;31.38
66762;BME280;77357;47.660;16.282;2024-03-23T11:43:38;93477.47;;;17.26;27.72
66762;BME280;77357;47.660;16.282;2024-03-23T11:48:49;93473.66;;;17.38;27.26
66762;BME280;77357;47.660;16.282;2024-03-23T11:53:51;93463.94;;;17.21;25.76
66762;BME280;77357;47.660;16.282;2024-03-23T11:58:54;93455.31;;;17.26;24.22
66762;BME280;77357;47.660;16.282;2024-03-23T12:03:57;93442.59;;;17.21;27.01
66762;BME280;77357;47.660;16.282;2024-03-23T12:09:05;93421.22;;;17.22;27.18
66762;BME280;77357;47.660;16.282;2024-03-23T12:14:08;93415.59;;;17.15;28.38
66762;BME280;77357;47.660;16.282;2024-03-23T12:19:11;93408.50;;;17.17;26.74
66762;BME280;77357;47.660;16.282;2024-03-23T12:24:13;93398.06;;;17.07;28.15
66762;BME280;77357;47.660;16.282;2024-03-23T12:29:15;93401.59;;;17.04;30.94
66762;BME280;77357;47.660;16.282;2024-03-23T12:34:19;93384.66;;;17.09;28.90
66762;BME280;77357;47.660;16.282;2024-03-23T12:39:21;93375.00;;;16.96;29.56
66762;BME280;77357;47.660;16.282;2024-03-23T12:44:23;93379.44;;;16.75;29.42
66762;BME280;77357;47.660;16.282;2024-03-23T12:49:27;93388.53;;;17.01;29.77
66762;BME280;77357;47.660;16.282;2024-03-23T12:54:29;93376.63;;;17.01;31.01
66762;BME280;77357;47.660;16.282;2024-03-23T12:59:32;93380.75;;;17.14;28.42
66762;BME280;77357;47.660;16.282;2024-03-23T13:04:37;93384.75;;;17.16;26.51
66762;BME280;77357;47.660;16.282;2024-03-23T13:09:39;93385.53;;;17.17;27.85
66762;BME280;77357;47.660;16.282;2024-03-23T13:14:41;93371.34;;;16.92;27.14
66762;BME280;77357;47.660;16.282;2024-03-23T13:19:44;93360.84;;;17.05;29.14
66762;BME280;77357;47.660;16.282;2024-03-23T13:24:46;93371.31;;;16.89;29.29
66762;BME280;77357;47.660;16.282;2024-03-23T13:29:48;93379.63;;;16.89;29.28
66762;BME280;77357;47.660;16.282;2024-03-23T13:34:52;93396.25;;;16.62;29.18
66762;BME280;77357;47.660;16.282;2024-03-23T13:39:54;93446.97;;;16.21;37.69
66762;BME280;77357;47.660;16.282;2024-03-23T13:44:56;93448.28;;;15.44;41.59
66762;BME280;77357;47.660;16.282;2024-03-23T13:49:59;93441.97;;;15.05;44.02
66762;BME280;77357;47.660;16.282;2024-03-23T13:55:01;93459.47;;;14.74;43.33
66762;BME280;77357;47.660;16.282;2024-03-23T14:00:07;93464.41;;;13.87;45.28
66762;BME280;77357;47.660;16.282;2024-03-23T14:05:11;93457.13;;;13.36;45.84
66762;BME280;77357;47.660;16.282;2024-03-23T14:10:12;93475.66;;;13.11;46.62
66762;BME280;77357;47.660;16.282;2024-03-23T14:15:14;93494.56;;;12.73;47.32
66762;BME280;77357;47.660;16.282;2024-03-23T14:20:18;93504.47;;;12.50;48.69
66762;BME280;77357;47.660;16.282;2024-03-23T14:25:20;93509.72;;;12.42;46.88
66762;BME280;77357;47.660;16.282;2024-03-23T14:30:24;93528.03;;;12.51;47.58
66762;BME280;77357;47.660;16.282;2024-03-23T14:35:30;93526.22;;;12.42;47.55
66762;BME280;77357;47.660;16.282;2024-03-23T14:40:33;93538.44;;;12.09;47.16
66762;BME280;77357;47.660;16.282;2024-03-23T14:45:36;93538.03;;;11.74;47.76
66762;BME280;77357;47.660;16.282;2024-03-23T14:50:39;93559.28;;;11.77;47.27
66762;BME280;77357;47.660;16.282;2024-03-23T14:55:41;93550.84;;;10.96;47.42
66762;BME280;77357;47.660;16.282;2024-03-23T15:00:48;93546.56;;;10.86;47.07
66762;BME280;77357;47.660;16.282;2024-03-23T15:05:55;93566.22;;;10.88;46.85
66762;BME280;77357;47.660;16.282;2024-03-23T15:10:59;93565.19;;;10.72;47.04
66762;BME280;77357;47.660;16.282;2024-03-23T15:16:01;93572.19;;;10.61;47.62
66762;BME280;77357;47.660;16.282;2024-03-23T15:21:05;93574.69;;;10.08;49.57
66762;BME280;77357;47.660;16.282;2024-03-23T15:26:08;93596.41;;;9.58;50.54
66762;BME280;77357;47.660;16.282;2024-03-23T15:31:10;93592.31;;;9.90;50.28
66762;BME280;77357;47.660;16.282;2024-03-23T15:36:14;93609.47;;;9.27;51.71
66762;BME280;77357;47.660;16.282;2024-03-23T15:41:16;93635.97;;;9.09;53.74
66762;BME280;77357;47.660;16.282;2024-03-23T15:46:18;93652.59;;;8.48;56.12
66762;BME280;77357;47.660;16.282;2024-03-23T15:51:22;93657.41;;;8.11;58.87
66762;BME280;77357;47.660;16.282;2024-03-23T15:56:24;93669.47;;;8.58;57.31
66762;BME280;77357;47.660;16.282;2024-03-23T16:01:26;93651.47;;;7.79;57.24
66762;BME280;77357;47.660;16.282;2024-03-23T16:06:29;93672.75;;;7.68;55.29
66762;BME280;77357;47.660;16.282;2024-03-23T16:11:31;93683.53;;;7.51;56.42
66762;BME280;77357;47.660;16.282;2024-03-23T16:16:33;93672.69;;;7.24;57.42
66762;BME280;77357;47.660;16.282;2024-03-23T16:21:37;93677.84;;;6.90;57.31
66762;BME280;77357;47.660;16.282;2024-03-23T16:26:39;93680.47;;;6.95;56.73
66762;BME280;77357;47.660;16.282;2024-03-23T16:31:40;93678.88;;;6.80;55.16
66762;BME280;77357;47.660;16.282;2024-03-23T16:36:44;93682.78;;;7.23;54.41
66762;BME280;77357;47.660;16.282;2024-03-23T16:41:46;93696.84;;;7.17;54.69
66762;BME280;77357;47.660;16.282;2024-03-23T16:46:48;93689.91;;;7.11;54.93
66762;BME280;77357;47.660;16.282;2024-03-23T16:51:51;93694.69;;;6.92;54.81
66762;BME280;77357;47.660;16.282;2024-03-23T16:56:53;93675.50;;;6.97;54.48
66762;BME280;77357;47.660;16.282;2024-03-23T17:01:56;93693.63;;;6.79;56.51
66762;BME280;77357;47.660;16.282;2024-03-23T17:06:59;93699.06;;;6.38;59.44
66762;BME280;77357;47.660;16.282;2024-03-23T17:12:02;93700.88;;;6.83;58.10
66762;BME280;77357;47.660;16.282;2024-03-23T17:17:04;93702.03;;;6.91;57.78
66762;BME280;77357;47.660;16.282;2024-03-23T17:22:08;93711.34;;;6.90;57.94
66762;BME280;77357;47.660;16.282;2024-03-23T17:27:10;93720.84;;;6.79;58.24
66762;BME280;77357;47.660;16.282;2024-03-23T17:32:13;93741.22;;;6.81;58.42
66762;BME280;77357;47.660;16.282;2024-03-23T17:37:16;93750.75;;;6.11;60.95
66762;BME280;77357;47.660;16.282;2024-03-23T17:42:19;93742.34;;;6.53;59.12
66762;BME280;77357;47.660;16.282;2024-03-23T17:47:21;93740.44;;;6.54;59.02
66762;BME280;77357;47.660;16.282;2024-03-23T17:52:24;93732.44;;;6.71;58.00
66762;BME280;77357;47.660;16.282;2024-03-23T17:57:26;93757.28;;;6.69;57.91
66762;BME280;77357;47.660;16.282;2024-03-23T18:02:28;93765.41;;;6.29;59.93
66762;BME280;77357;47.660;16.282;2024-03-23T18:07:32;93773.69;;;6.92;57.97
66762;BME280;77357;47.660;16.282;2024-03-23T18:12:34;93755.94;;;6.40;59.93
66762;BME280;77357;47.660;16.282;2024-03-23T18:17:36;93763.09;;;5.90;62.41
66762;BME280;77357;47.660;16.282;2024-03-23T18:22:39;93770.16;;;5.91;62.58
66762;BME280;77357;47.660;16.282;2024-03-23T18:27:43;93770.22;;;6.18;62.93
66762;BME280;77357;47.660;16.282;2024-03-23T18:32:45;93752.88;;;6.14;63.35
66762;BME280;77357;47.660;16.282;2024-03-23T18:37:48;93740.88;;;6.15;62.35
66762;BME280;77357;47.660;16.282;2024-03-23T18:42:54;93732.63;;;6.61;59.27
66762;BME280;77357;47.660;16.282;2024-03-23T18:47:56;93741.44;;;6.31;58.70
66762;BME280;77357;47.660;16.282;2024-03-23T18:52:59;93735.50;;;6.42;59.37
66762;BME280;77357;47.660;16.282;2024-03-23T18:58:01;93714.81;;;6.41;56.94
66762;BME280;77357;47.660;16.282;2024-03-23T19:03:03;93740.31;;;6.59;56.69
66762;BME280;77357;47.660;16.282;2024-03-23T19:08:07;93767.34;;;6.28;58.35
66762;BME280;77357;47.660;16.282;2024-03-23T19:13:09;93787.31;;;6.64;56.63
66762;BME280;77357;47.660;16.282;2024-03-23T19:18:11;93774.63;;;6.60;57.09
66762;BME280;77357;47.660;16.282;2024-03-23T19:23:14;93743.84;;;6.32;58.19
66762;BME280;77357;47.660;16.282;2024-03-23T19:28:16;93724.66;;;6.10;59.20
66762;BME280;77357;47.660;16.282;2024-03-23T19:33:18;93731.50;;;6.07;59.38
66762;BME280;77357;47.660;16.282;2024-03-23T19:38:22;93717.19;;;6.02;57.25
66762;BME280;77357;47.660;16.282;2024-03-23T19:43:24;93699.72;;;5.44;58.42
66762;BME280;77357;47.660;16.282;2024-03-23T19:48:26;93716.84;;;5.90;57.71
66762;BME280;77357;47.660;16.282;2024-03-23T19:53:30;93715.91;;;5.81;58.76
66762;BME280;77357;47.660;16.282;2024-03-23T19:58:33;93731.56;;;5.89;59.14
66762;BME280;77357;47.660;16.282;2024-03-23T20:03:35;93760.91;;;5.60;60.19
66762;BME280;77357;47.660;16.282;2024-03-23T20:08:38;93772.72;;;5.50;61.08
66762;BME280;77357;47.660;16.282;2024-03-23T20:13:40;93804.88;;;5.80;59.33
66762;BME280;77357;47.660;16.282;2024-03-23T20:18:42;93813.69;;;6.23;57.96
66762;BME280;77357;47.660;16.282;2024-03-23T20:23:46;93801.34;;;5.80;59.09
66762;BME280;77357;47.660;16.282;2024-03-23T20:28:47;93799.97;;;5.45;59.65
66762;BME280;77357;47.660;16.282;2024-03-23T20:33:49;93817.44;;;5.76;57.49
66762;BME280;77357;47.660;16.282;2024-03-23T20:38:54;93848.63;;;5.65;57.50
66762;BME280;77357;47.660;16.282;2024-03-23T20:43:56;93864.78;;;5.75;56.98
66762;BME280;77357;47.660;16.282;2024-03-23T20:48:58;93868.38;;;6.08;55.17
66762;BME280;77357;47.660;16.282;2024-03-23T20:54:01;93861.19;;;5.80;55.11
66762;BME280;77357;47.660;16.282;2024-03-23T20:59:03;93882.91;;;5.43;54.85
66762;BME280;77357;47.660;16.282;2024-03-23T21:04:05;93899.56;;;5.60;52.06
66762;BME280;77357;47.660;16.282;2024-03-23T21:09:08;93894.69;;;5.57;52.51
66762;BME280;77357;47.660;16.282;2024-03-23T21:14:10;93857.81;;;5.51;52.17
66762;BME280;77357;47.660;16.282;2024-03-23T21:19:12;93850.19;;;5.71;51.33
66762;BME280;77357;47.660;16.282;2024-03-23T21:24:15;93743.84;;;5.35;51.50
66762;BME280;77357;47.660;16.282;2024-03-23T21:29:17;93781.09;;;5.54;51.44
66762;BME280;77357;47.660;16.282;2024-03-23T21:34:19;93766.41;;;5.55;52.06
66762;BME280;77357;47.660;16.282;2024-03-23T21:39:22;93754.25;;;5.66;52.61
66762;BME280;77357;47.660;16.282;2024-03-23T21:44:24;93765.91;;;5.15;53.30
66762;BME280;77357;47.660;16.282;2024-03-23T21:49:26;93758.47;;;5.39;52.78
66762;BME280;77357;47.660;16.282;2024-03-23T21:54:29;93757.88;;;5.43;53.63
66762;BME280;77357;47.660;16.282;2024-03-23T21:59:31;93765.41;;;5.32;53.73
66762;BME280;77357;47.660;16.282;2024-03-23T22:04:33;93762.59;;;5.37;53.16
66762;BME280;77357;47.660;16.282;2024-03-23T22:09:37;93754.94;;;5.58;52.55
66762;BME280;77357;47.660;16.282;2024-03-23T22:14:39;93767.88;;;4.91;54.21
66762;BME280;77357;47.660;16.282;2024-03-23T22:19:41;93748.66;;;5.06;52.92
66762;BME280;77357;47.660;16.282;2024-03-23T22:24:44;93728.31;;;5.22;52.79
66762;BME280;77357;47.660;16.282;2024-03-23T22:29:46;93706.06;;;5.20;51.30
66762;BME280;77357;47.660;16.282;2024-03-23T22:34:48;93704.19;;;4.79;51.84
66762;BME280;77357;47.660;16.282;2024-03-23T22:39:51;93671.88;;;5.33;49.60
66762;BME280;77357;47.660;16.282;2024-03-23T22:44:53;93647.03;;;5.07;50.64
66762;BME280;77357;47.660;16.282;2024-03-23T22:49:55;93733.28;;;4.73;49.87
66762;BME280;77357;47.660;16.282;2024-03-23T22:54:59;93776.94;;;4.82;49.15
66762;BME280;77357;47.660;16.282;2024-03-23T23:00:00;93727.78;;;5.20;47.59
66762;BME280;77357;47.660;16.282;2024-03-23T23:05:08;93743.50;;;4.39;49.71
66762;BME280;77357;47.660;16.282;2024-03-23T23:10:12;93728.66;;;4.55;49.86
66762;BME280;77357;47.660;16.282;2024-03-23T23:15:14;93728.44;;;4.94;47.75
66762;BME280;77357;47.660;16.282;2024-03-23T23:20:16;93704.38;;;5.06;47.51
66762;BME280;77357;47.660;16.282;2024-03-23T23:25:19;93691.97;;;4.57;47.93
66762;BME280;77357;47.660;16.282;2024-03-23T23:30:21;93682.94;;;5.23;46.01
66762;BME280;77357;47.660;16.282;2024-03-23T23:35:23;93683.13;;;5.26;45.66
66762;BME280;77357;47.660;16.282;2024-03-23T23:40:27;93694.50;;;4.72;47.08
66762;BME280;77357;47.660;16.282;2024-03-23T23:45:30;93691.28;;;5.26;45.49
66762;BME280;77357;47.660;16.282;2024-03-23T23:50:32;93690.34;;;5.17;44.68
66762;BME280;77357;47.660;16.282;2024-03-23T23:55:36;93692.41;;;5.25;43.62
